TVF4398 LFPO-LKPR
Flight info
| Callsign | TVF4398 |
|---|---|
| Flight time | 1h 11m |
| Altitude | 35000 |
| Route | RANUX DCT VALEK DCT LIPNI DCT LIMGO DCT BOMBI DCT BOREP DCT TONSU Z35 ODOMO DCT LOMKI |
| Aircraft | A320/M-SDE3FGHIRWY/LB1 |
Departure
| Time | 2026-05-05 08:36 |
|---|---|
| Airport | Paris-Orly Airport (LFPO) |
Arrival
| Time | 2026-05-05 09:47 |
|---|---|
| Airport | Václav Havel Airport Prague (LKPR) |
| Time | Latitude | Longitude | Altitude | Speed | Heading |
|---|---|---|---|---|---|
| 2026-05-05 08:08 | 48.72630 | 2.35944 | 292 ft | 0 kts | 0° |
| 2026-05-05 08:29 | 48.72622 | 2.35944 | 291 ft | 3 kts | 360° |
| 2026-05-05 08:29 | 48.72598 | 2.35945 | 291 ft | 3 kts | 360° |
| 2026-05-05 08:30 | 48.72549 | 2.35939 | 294 ft | 3 kts | 6° |
| 2026-05-05 08:30 | 48.72525 | 2.35935 | 292 ft | 3 kts | 6° |
| 2026-05-05 08:30 | 48.72501 | 2.35932 | 291 ft | 3 kts | 359° |
| 2026-05-05 08:30 | 48.72478 | 2.35936 | 295 ft | 3 kts | 330° |
| 2026-05-05 08:31 | 48.72468 | 2.35950 | 291 ft | 0 kts | 277° |
| 2026-05-05 08:32 | 48.72469 | 2.35944 | 293 ft | 3 kts | 277° |
| 2026-05-05 08:32 | 48.72474 | 2.35869 | 292 ft | 11 kts | 276° |
| 2026-05-05 08:33 | 48.72473 | 2.35731 | 294 ft | 13 kts | 260° |
| 2026-05-05 08:33 | 48.72434 | 2.35620 | 292 ft | 12 kts | 204° |
| 2026-05-05 08:33 | 48.72340 | 2.35637 | 293 ft | 14 kts | 184° |
| 2026-05-05 08:33 | 48.72254 | 2.35603 | 293 ft | 12 kts | 191° |
| 2026-05-05 08:34 | 48.72177 | 2.35620 | 291 ft | 10 kts | 166° |
| 2026-05-05 08:34 | 48.72088 | 2.35665 | 292 ft | 17 kts | 151° |
| 2026-05-05 08:34 | 48.72013 | 2.35793 | 295 ft | 17 kts | 118° |
| 2026-05-05 08:34 | 48.71961 | 2.35937 | 292 ft | 11 kts | 107° |
| 2026-05-05 08:35 | 48.71968 | 2.36009 | 292 ft | 9 kts | 75° |
| 2026-05-05 08:35 | 48.72035 | 2.36368 | 292 ft | 71 kts | 74° |
| 2026-05-05 08:35 | 48.72224 | 2.37394 | 290 ft | 129 kts | 74° |
| 2026-05-05 08:35 | 48.72508 | 2.38923 | 378 ft | 166 kts | 72° |
| 2026-05-05 08:36 | 48.72709 | 2.40038 | 866 ft | 160 kts | 73° |
| 2026-05-05 08:36 | 48.73102 | 2.42189 | 1805 ft | 160 kts | 72° |
| 2026-05-05 08:36 | 48.73306 | 2.43297 | 2204 ft | 165 kts | 72° |
| 2026-05-05 08:36 | 48.73635 | 2.45088 | 2510 ft | 187 kts | 74° |
| 2026-05-05 08:37 | 48.73994 | 2.47115 | 2759 ft | 212 kts | 81° |
| 2026-05-05 08:37 | 48.74077 | 2.49435 | 3102 ft | 235 kts | 88° |
| 2026-05-05 08:37 | 48.74152 | 2.52026 | 3611 ft | 254 kts | 88° |
| 2026-05-05 08:37 | 48.74250 | 2.54735 | 4416 ft | 260 kts | 87° |
| 2026-05-05 08:38 | 48.74414 | 2.57480 | 5266 ft | 264 kts | 84° |
| 2026-05-05 08:38 | 48.74636 | 2.60266 | 6093 ft | 268 kts | 83° |
| 2026-05-05 08:38 | 48.74881 | 2.63103 | 6936 ft | 272 kts | 83° |
| 2026-05-05 08:38 | 48.75133 | 2.65968 | 7758 ft | 276 kts | 83° |
| 2026-05-05 08:39 | 48.75386 | 2.68874 | 8538 ft | 280 kts | 83° |
| 2026-05-05 08:39 | 48.75628 | 2.71821 | 9320 ft | 283 kts | 83° |
| 2026-05-05 08:39 | 48.75865 | 2.74805 | 10073 ft | 288 kts | 84° |
| 2026-05-05 08:39 | 48.76105 | 2.77926 | 10403 ft | 309 kts | 84° |
| 2026-05-05 08:40 | 48.76359 | 2.81246 | 10605 ft | 333 kts | 84° |
| 2026-05-05 08:40 | 48.76634 | 2.84833 | 10893 ft | 350 kts | 84° |
| 2026-05-05 08:40 | 48.76914 | 2.88539 | 11485 ft | 357 kts | 84° |
| 2026-05-05 08:40 | 48.77195 | 2.92298 | 12191 ft | 360 kts | 84° |
| 2026-05-05 08:41 | 48.77478 | 2.96085 | 12864 ft | 363 kts | 84° |
| 2026-05-05 08:41 | 48.77795 | 2.99903 | 13532 ft | 367 kts | 83° |
| 2026-05-05 08:41 | 48.78207 | 3.03738 | 14186 ft | 371 kts | 81° |
| 2026-05-05 08:41 | 48.78683 | 3.07601 | 14807 ft | 376 kts | 80° |
| 2026-05-05 08:42 | 48.79185 | 3.11499 | 15424 ft | 377 kts | 80° |
| 2026-05-05 08:42 | 48.79687 | 3.15420 | 15990 ft | 380 kts | 81° |
| 2026-05-05 08:42 | 48.80183 | 3.19377 | 16553 ft | 383 kts | 81° |
| 2026-05-05 08:42 | 48.80671 | 3.23372 | 17104 ft | 387 kts | 81° |
| 2026-05-05 08:43 | 48.81148 | 3.27398 | 17634 ft | 390 kts | 81° |
| 2026-05-05 08:43 | 48.81621 | 3.31468 | 18158 ft | 393 kts | 82° |
| 2026-05-05 08:43 | 48.82134 | 3.35563 | 18660 ft | 397 kts | 77° |
| 2026-05-05 08:43 | 48.83036 | 3.39537 | 19143 ft | 402 kts | 67° |
| 2026-05-05 08:44 | 48.84272 | 3.43358 | 19618 ft | 406 kts | 65° |
| 2026-05-05 08:44 | 48.85515 | 3.47159 | 20068 ft | 409 kts | 65° |
| 2026-05-05 08:44 | 48.86781 | 3.51049 | 20514 ft | 412 kts | 65° |
| 2026-05-05 08:44 | 48.88053 | 3.54971 | 20955 ft | 415 kts | 65° |
| 2026-05-05 08:45 | 48.89330 | 3.58924 | 21378 ft | 418 kts | 65° |
| 2026-05-05 08:45 | 48.90611 | 3.62904 | 21799 ft | 421 kts | 66° |
| 2026-05-05 08:45 | 48.91901 | 3.66920 | 22193 ft | 424 kts | 66° |
| 2026-05-05 08:45 | 48.93198 | 3.70966 | 22581 ft | 427 kts | 66° |
| 2026-05-05 08:46 | 48.94507 | 3.75045 | 22971 ft | 430 kts | 65° |
| 2026-05-05 08:46 | 48.95825 | 3.79153 | 23352 ft | 433 kts | 65° |
| 2026-05-05 08:46 | 48.97148 | 3.83281 | 23727 ft | 435 kts | 65° |
| 2026-05-05 08:46 | 48.98478 | 3.87436 | 24082 ft | 438 kts | 65° |
| 2026-05-05 08:47 | 48.99812 | 3.91617 | 24430 ft | 441 kts | 66° |
| 2026-05-05 08:47 | 49.01155 | 3.95827 | 24779 ft | 443 kts | 66° |
| 2026-05-05 08:47 | 49.02504 | 4.00065 | 25089 ft | 446 kts | 66° |
| 2026-05-05 08:47 | 49.03859 | 4.04330 | 25384 ft | 449 kts | 66° |
| 2026-05-05 08:48 | 49.05223 | 4.08637 | 25664 ft | 453 kts | 66° |
| 2026-05-05 08:48 | 49.06595 | 4.12979 | 25978 ft | 456 kts | 66° |
| 2026-05-05 08:48 | 49.07975 | 4.17355 | 26296 ft | 459 kts | 66° |
| 2026-05-05 08:48 | 49.09342 | 4.21695 | 26610 ft | 461 kts | 66° |
| 2026-05-05 08:49 | 49.10738 | 4.26125 | 26888 ft | 464 kts | 67° |
| 2026-05-05 08:49 | 49.12133 | 4.30572 | 27152 ft | 466 kts | 67° |
| 2026-05-05 08:49 | 49.13536 | 4.35050 | 27412 ft | 469 kts | 67° |
| 2026-05-05 08:49 | 49.14904 | 4.39578 | 27669 ft | 470 kts | 69° |
| 2026-05-05 08:50 | 49.16200 | 4.44178 | 27907 ft | 473 kts | 70° |
| 2026-05-05 08:50 | 49.17448 | 4.48844 | 28149 ft | 475 kts | 71° |
| 2026-05-05 08:50 | 49.18675 | 4.53537 | 28406 ft | 477 kts | 71° |
| 2026-05-05 08:50 | 49.19905 | 4.58258 | 28630 ft | 480 kts | 71° |
| 2026-05-05 08:51 | 49.21153 | 4.63009 | 28869 ft | 482 kts | 71° |
| 2026-05-05 08:51 | 49.22419 | 4.67755 | 29187 ft | 482 kts | 71° |
| 2026-05-05 08:51 | 49.23697 | 4.72495 | 29520 ft | 482 kts | 71° |
| 2026-05-05 08:51 | 49.24977 | 4.77230 | 29815 ft | 482 kts | 71° |
| 2026-05-05 08:52 | 49.26259 | 4.81979 | 30128 ft | 482 kts | 71° |
| 2026-05-05 08:52 | 49.27532 | 4.86717 | 30441 ft | 482 kts | 71° |
| 2026-05-05 08:52 | 49.28805 | 4.91474 | 30716 ft | 483 kts | 71° |
| 2026-05-05 08:52 | 49.30072 | 4.96234 | 31012 ft | 483 kts | 71° |
| 2026-05-05 08:53 | 49.31322 | 5.00947 | 31285 ft | 483 kts | 71° |
| 2026-05-05 08:53 | 49.32586 | 5.05724 | 31554 ft | 484 kts | 71° |
| 2026-05-05 08:53 | 49.33849 | 5.10506 | 31832 ft | 484 kts | 72° |
| 2026-05-05 08:53 | 49.35109 | 5.15287 | 32100 ft | 485 kts | 72° |
| 2026-05-05 08:54 | 49.36374 | 5.20090 | 32356 ft | 485 kts | 71° |
| 2026-05-05 08:54 | 49.37637 | 5.24889 | 32616 ft | 486 kts | 72° |
| 2026-05-05 08:54 | 49.38905 | 5.29712 | 32875 ft | 487 kts | 72° |
| 2026-05-05 08:54 | 49.40173 | 5.34549 | 33106 ft | 488 kts | 72° |
| 2026-05-05 08:55 | 49.41434 | 5.39381 | 33357 ft | 488 kts | 72° |
| 2026-05-05 08:55 | 49.42695 | 5.44227 | 33611 ft | 489 kts | 72° |
| 2026-05-05 08:55 | 49.43955 | 5.49078 | 33857 ft | 489 kts | 72° |
| 2026-05-05 08:55 | 49.45216 | 5.53941 | 34100 ft | 490 kts | 72° |
| 2026-05-05 08:56 | 49.46479 | 5.58814 | 34350 ft | 490 kts | 72° |
| 2026-05-05 08:56 | 49.47738 | 5.63685 | 34619 ft | 490 kts | 71° |
| 2026-05-05 08:56 | 49.48996 | 5.68561 | 34845 ft | 490 kts | 71° |
| 2026-05-05 08:57 | 49.51511 | 5.78343 | 34900 ft | 492 kts | 71° |
| 2026-05-05 08:57 | 49.53942 | 5.88200 | 34897 ft | 493 kts | 72° |
| 2026-05-05 08:58 | 49.56339 | 5.98086 | 34896 ft | 493 kts | 72° |
| 2026-05-05 08:58 | 49.58770 | 6.07978 | 34898 ft | 494 kts | 72° |
| 2026-05-05 08:59 | 49.61197 | 6.17810 | 34897 ft | 494 kts | 72° |
| 2026-05-05 08:59 | 49.63617 | 6.27728 | 34891 ft | 493 kts | 75° |
| 2026-05-05 09:00 | 49.65474 | 6.37872 | 34890 ft | 491 kts | 78° |
| 2026-05-05 09:00 | 49.67273 | 6.48045 | 34889 ft | 491 kts | 78° |
| 2026-05-05 09:01 | 49.69057 | 6.58237 | 34891 ft | 491 kts | 78° |
| 2026-05-05 09:01 | 49.70844 | 6.68422 | 34893 ft | 491 kts | 78° |
| 2026-05-05 09:02 | 49.72629 | 6.78602 | 34896 ft | 490 kts | 78° |
| 2026-05-05 09:02 | 49.74396 | 6.88788 | 34898 ft | 490 kts | 78° |
| 2026-05-05 09:03 | 49.76135 | 6.98878 | 34913 ft | 487 kts | 79° |
| 2026-05-05 09:03 | 49.77864 | 7.08974 | 34909 ft | 484 kts | 79° |
| 2026-05-05 09:04 | 49.79572 | 7.19031 | 34907 ft | 482 kts | 79° |
| 2026-05-05 09:04 | 49.81276 | 7.29066 | 34908 ft | 482 kts | 79° |
| 2026-05-05 09:05 | 49.82971 | 7.39114 | 34900 ft | 481 kts | 79° |
| 2026-05-05 09:05 | 49.84651 | 7.49151 | 34895 ft | 482 kts | 79° |
| 2026-05-05 09:06 | 49.86315 | 7.59155 | 34892 ft | 482 kts | 79° |
| 2026-05-05 09:06 | 49.87981 | 7.69236 | 34886 ft | 483 kts | 79° |
| 2026-05-05 09:07 | 49.89645 | 7.79336 | 34883 ft | 483 kts | 79° |
| 2026-05-05 09:07 | 49.91298 | 7.89447 | 34880 ft | 483 kts | 79° |
| 2026-05-05 09:08 | 49.92947 | 7.99569 | 34874 ft | 484 kts | 79° |
| 2026-05-05 09:08 | 49.94586 | 8.09706 | 34873 ft | 484 kts | 79° |
| 2026-05-05 09:09 | 49.96207 | 8.19791 | 34876 ft | 484 kts | 79° |
| 2026-05-05 09:09 | 49.97827 | 8.29933 | 34878 ft | 484 kts | 80° |
| 2026-05-05 09:10 | 49.99435 | 8.40085 | 34877 ft | 484 kts | 80° |
| 2026-05-05 09:10 | 50.01031 | 8.50245 | 34880 ft | 484 kts | 79° |
| 2026-05-05 09:11 | 50.02622 | 8.60397 | 34869 ft | 485 kts | 79° |
| 2026-05-05 09:11 | 50.04208 | 8.70599 | 34863 ft | 485 kts | 80° |
| 2026-05-05 09:12 | 50.05435 | 8.80872 | 34859 ft | 480 kts | 91° |
| 2026-05-05 09:12 | 50.05196 | 8.91123 | 34858 ft | 476 kts | 98° |
| 2026-05-05 09:13 | 50.04746 | 9.01409 | 34857 ft | 477 kts | 98° |
| 2026-05-05 09:13 | 50.04292 | 9.11723 | 34861 ft | 478 kts | 98° |
| 2026-05-05 09:14 | 50.03834 | 9.22026 | 34863 ft | 478 kts | 98° |
| 2026-05-05 09:14 | 50.03368 | 9.32336 | 34871 ft | 478 kts | 98° |
| 2026-05-05 09:15 | 50.02892 | 9.42646 | 34878 ft | 478 kts | 98° |
| 2026-05-05 09:15 | 50.02397 | 9.52951 | 34880 ft | 478 kts | 98° |
| 2026-05-05 09:16 | 50.01887 | 9.63270 | 34887 ft | 478 kts | 98° |
| 2026-05-05 09:16 | 50.01379 | 9.73571 | 34892 ft | 478 kts | 98° |
| 2026-05-05 09:17 | 50.00868 | 9.83799 | 34896 ft | 478 kts | 98° |
| 2026-05-05 09:17 | 50.00341 | 9.94091 | 34897 ft | 477 kts | 98° |
| 2026-05-05 09:18 | 49.99805 | 10.04371 | 34901 ft | 477 kts | 98° |
| 2026-05-05 09:18 | 49.99260 | 10.14640 | 34897 ft | 477 kts | 98° |
| 2026-05-05 09:19 | 49.98708 | 10.24910 | 34895 ft | 476 kts | 98° |
| 2026-05-05 09:19 | 49.98150 | 10.35160 | 34892 ft | 476 kts | 98° |
| 2026-05-05 09:20 | 49.97574 | 10.45405 | 34890 ft | 476 kts | 99° |
| 2026-05-05 09:20 | 49.96986 | 10.55630 | 34887 ft | 475 kts | 98° |
| 2026-05-05 09:21 | 49.96599 | 10.65887 | 34883 ft | 478 kts | 92° |
| 2026-05-05 09:21 | 49.96700 | 10.76209 | 34880 ft | 477 kts | 92° |
| 2026-05-05 09:22 | 49.96785 | 10.86514 | 34879 ft | 478 kts | 92° |
| 2026-05-05 09:22 | 49.96854 | 10.96766 | 34883 ft | 477 kts | 92° |
| 2026-05-05 09:23 | 49.96902 | 11.07073 | 34886 ft | 478 kts | 92° |
| 2026-05-05 09:23 | 49.96939 | 11.17390 | 34882 ft | 477 kts | 92° |
| 2026-05-05 09:24 | 49.96920 | 11.27676 | 34877 ft | 476 kts | 94° |
| 2026-05-05 09:24 | 49.96612 | 11.37942 | 34872 ft | 475 kts | 96° |
| 2026-05-05 09:25 | 49.96188 | 11.48190 | 34870 ft | 476 kts | 96° |
| 2026-05-05 09:25 | 49.95798 | 11.58458 | 34862 ft | 476 kts | 95° |
| 2026-05-05 09:26 | 49.95468 | 11.68720 | 34861 ft | 476 kts | 95° |
| 2026-05-05 09:26 | 49.95136 | 11.79000 | 34858 ft | 477 kts | 95° |
| 2026-05-05 09:27 | 49.94830 | 11.87540 | 34855 ft | 477 kts | 95° |
| 2026-05-05 09:27 | 49.94465 | 11.97825 | 34855 ft | 477 kts | 94° |
| 2026-05-05 09:28 | 49.94214 | 12.09818 | 34857 ft | 478 kts | 93° |
| 2026-05-05 09:28 | 49.94074 | 12.18454 | 34859 ft | 478 kts | 93° |
| 2026-05-05 09:29 | 49.93876 | 12.28770 | 34858 ft | 478 kts | 94° |
| 2026-05-05 09:29 | 49.93627 | 12.39010 | 34865 ft | 477 kts | 94° |
| 2026-05-05 09:30 | 49.93327 | 12.49296 | 34869 ft | 477 kts | 95° |
| 2026-05-05 09:30 | 49.93019 | 12.59584 | 34839 ft | 477 kts | 94° |
| 2026-05-05 09:30 | 49.92864 | 12.64723 | 34429 ft | 477 kts | 94° |
| 2026-05-05 09:31 | 49.92708 | 12.69904 | 33375 ft | 485 kts | 94° |
| 2026-05-05 09:31 | 49.92547 | 12.75161 | 32333 ft | 491 kts | 94° |
| 2026-05-05 09:31 | 49.92381 | 12.80474 | 31477 ft | 492 kts | 94° |
| 2026-05-05 09:31 | 49.92213 | 12.85773 | 30645 ft | 492 kts | 94° |
| 2026-05-05 09:32 | 49.92041 | 12.91086 | 29668 ft | 494 kts | 94° |
| 2026-05-05 09:32 | 49.91867 | 12.96414 | 28680 ft | 495 kts | 94° |
| 2026-05-05 09:32 | 49.91691 | 13.01758 | 27762 ft | 495 kts | 94° |
| 2026-05-05 09:32 | 49.91515 | 13.07066 | 26933 ft | 491 kts | 94° |
| 2026-05-05 09:33 | 49.91337 | 13.12343 | 26045 ft | 488 kts | 94° |
| 2026-05-05 09:33 | 49.91156 | 13.17570 | 25290 ft | 483 kts | 94° |
| 2026-05-05 09:33 | 49.90980 | 13.22674 | 24550 ft | 477 kts | 94° |
| 2026-05-05 09:33 | 49.90805 | 13.27777 | 23797 ft | 471 kts | 94° |
| 2026-05-05 09:34 | 49.90629 | 13.32811 | 23050 ft | 465 kts | 94° |
| 2026-05-05 09:34 | 49.90451 | 13.37792 | 22306 ft | 460 kts | 94° |
| 2026-05-05 09:34 | 49.90271 | 13.42719 | 21577 ft | 456 kts | 95° |
| 2026-05-05 09:34 | 49.90092 | 13.47606 | 20857 ft | 452 kts | 94° |
| 2026-05-05 09:35 | 49.89954 | 13.52460 | 20143 ft | 449 kts | 93° |
| 2026-05-05 09:35 | 49.89890 | 13.62067 | 18695 ft | 443 kts | 91° |
| 2026-05-05 09:35 | 49.89904 | 13.66830 | 18080 ft | 439 kts | 91° |
| 2026-05-05 09:36 | 49.89914 | 13.71535 | 17496 ft | 433 kts | 91° |
| 2026-05-05 09:36 | 49.89910 | 13.76175 | 16922 ft | 427 kts | 92° |
| 2026-05-05 09:36 | 49.89889 | 13.80761 | 16331 ft | 423 kts | 92° |
| 2026-05-05 09:36 | 49.89855 | 13.85288 | 15746 ft | 418 kts | 92° |
| 2026-05-05 09:37 | 49.89813 | 13.89779 | 15133 ft | 415 kts | 92° |
| 2026-05-05 09:37 | 49.89771 | 13.94175 | 14526 ft | 411 kts | 93° |
| 2026-05-05 09:37 | 49.89729 | 13.98590 | 13893 ft | 408 kts | 93° |
| 2026-05-05 09:37 | 49.89686 | 14.02983 | 13243 ft | 406 kts | 93° |
| 2026-05-05 09:38 | 49.89642 | 14.07337 | 12642 ft | 402 kts | 93° |
| 2026-05-05 09:38 | 49.89596 | 14.11649 | 12034 ft | 397 kts | 94° |
| 2026-05-05 09:38 | 49.89551 | 14.15919 | 11346 ft | 396 kts | 94° |
| 2026-05-05 09:38 | 49.89506 | 14.20132 | 10935 ft | 381 kts | 93° |
| 2026-05-05 09:39 | 49.89464 | 14.24074 | 10777 ft | 350 kts | 93° |
| 2026-05-05 09:39 | 49.89426 | 14.27695 | 10647 ft | 324 kts | 94° |
| 2026-05-05 09:39 | 49.89388 | 14.31088 | 10382 ft | 306 kts | 93° |
| 2026-05-05 09:39 | 49.89349 | 14.34339 | 9920 ft | 297 kts | 93° |
| 2026-05-05 09:40 | 49.89308 | 14.37519 | 9759 ft | 296 kts | 93° |
| 2026-05-05 09:40 | 49.89267 | 14.40705 | 9621 ft | 295 kts | 93° |
| 2026-05-05 09:40 | 49.89225 | 14.43888 | 9333 ft | 297 kts | 93° |
| 2026-05-05 09:40 | 49.89181 | 14.47108 | 8940 ft | 296 kts | 92° |
| 2026-05-05 09:41 | 49.89139 | 14.50269 | 8482 ft | 290 kts | 93° |
| 2026-05-05 09:41 | 49.89281 | 14.53277 | 8236 ft | 274 kts | 75° |
| 2026-05-05 09:41 | 49.90177 | 14.55801 | 7685 ft | 273 kts | 47° |
| 2026-05-05 09:41 | 49.91731 | 14.57469 | 7038 ft | 274 kts | 20° |
| 2026-05-05 09:42 | 49.93598 | 14.57921 | 6399 ft | 274 kts | 354° |
| 2026-05-05 09:42 | 49.95402 | 14.57061 | 5728 ft | 272 kts | 326° |
| 2026-05-05 09:42 | 49.96578 | 14.54921 | 5355 ft | 257 kts | 291° |
| 2026-05-05 09:42 | 49.97199 | 14.52394 | 5021 ft | 245 kts | 298° |
| 2026-05-05 09:43 | 49.98188 | 14.50316 | 4722 ft | 235 kts | 309° |
| 2026-05-05 09:43 | 49.99212 | 14.48372 | 4409 ft | 229 kts | 308° |
| 2026-05-05 09:43 | 50.00172 | 14.46440 | 4108 ft | 223 kts | 307° |
| 2026-05-05 09:43 | 50.01091 | 14.44553 | 3827 ft | 214 kts | 307° |
| 2026-05-05 09:44 | 50.01973 | 14.42739 | 3562 ft | 204 kts | 307° |
| 2026-05-05 09:44 | 50.02782 | 14.41076 | 3313 ft | 188 kts | 308° |
| 2026-05-05 09:44 | 50.03532 | 14.39533 | 3053 ft | 171 kts | 308° |
| 2026-05-05 09:44 | 50.04221 | 14.38116 | 2828 ft | 158 kts | 308° |
| 2026-05-05 09:45 | 50.04867 | 14.36787 | 2640 ft | 151 kts | 308° |
| 2026-05-05 09:45 | 50.05494 | 14.35495 | 2450 ft | 148 kts | 309° |
| 2026-05-05 09:45 | 50.06109 | 14.34218 | 2198 ft | 147 kts | 310° |
| 2026-05-05 09:45 | 50.06718 | 14.32975 | 2038 ft | 144 kts | 307° |
| 2026-05-05 09:46 | 50.07314 | 14.31728 | 1775 ft | 142 kts | 309° |
| 2026-05-05 09:46 | 50.07904 | 14.30517 | 1631 ft | 142 kts | 307° |
| 2026-05-05 09:46 | 50.08503 | 14.29285 | 1450 ft | 144 kts | 309° |
| 2026-05-05 09:46 | 50.09109 | 14.28028 | 1269 ft | 145 kts | 308° |
| 2026-05-05 09:47 | 50.09671 | 14.26877 | 1208 ft | 115 kts | 307° |
| 2026-05-05 09:47 | 50.10047 | 14.26094 | 1191 ft | 65 kts | 307° |
| 2026-05-05 09:47 | 50.10246 | 14.25728 | 1188 ft | 26 kts | 327° |
| 2026-05-05 09:47 | 50.10369 | 14.25666 | 1184 ft | 9 kts | 356° |
| 2026-05-05 09:48 | 50.10431 | 14.25663 | 1183 ft | 11 kts | 5° |
| 2026-05-05 09:48 | 50.10490 | 14.25754 | 1179 ft | 15 kts | 82° |
| 2026-05-05 09:48 | 50.10513 | 14.25963 | 1174 ft | 21 kts | 78° |
| 2026-05-05 09:48 | 50.10537 | 14.26188 | 1174 ft | 21 kts | 92° |
| 2026-05-05 09:49 | 50.10483 | 14.26363 | 1174 ft | 17 kts | 124° |
| 2026-05-05 09:49 | 50.10416 | 14.26515 | 1171 ft | 15 kts | 125° |
| 2026-05-05 09:49 | 50.10367 | 14.26622 | 1172 ft | 8 kts | 135° |
| 2026-05-05 09:49 | 50.10371 | 14.26670 | 1174 ft | 4 kts | 46° |
| 2026-05-05 09:50 | 50.10383 | 14.26683 | 1178 ft | 1 kts | 34° |
| 2026-05-05 09:50 | 50.10388 | 14.26688 | 1172 ft | 0 kts | 34° |
| 2026-05-05 09:50 | 50.10390 | 14.26691 | 1174 ft | 0 kts | 34° |
| 2026-05-05 09:50 | 50.10391 | 14.26692 | 1174 ft | 0 kts | 34° |